createdAt,value
2022-12-04T00:01:25.730Z,38.17
2022-12-04T00:04:00.535Z,36.92
2022-12-04T00:06:31.939Z,28.25
2022-12-04T00:09:02.176Z,39.58
2022-12-04T00:11:34.177Z,40.70
2022-12-04T00:14:07.183Z,38.15
2022-12-04T00:16:38.226Z,37.85
2022-12-04T00:19:10.857Z,31.77
2022-12-04T00:21:40.828Z,41.28
2022-12-04T00:24:11.111Z,35.95
2022-12-04T00:26:41.107Z,33.90
2022-12-04T00:29:11.129Z,41.72
2022-12-04T00:31:41.415Z,38.92
2022-12-04T00:34:14.039Z,23.17
2022-12-04T00:36:44.403Z,40.70
2022-12-04T00:39:14.579Z,44.63
2022-12-04T00:41:44.639Z,43.85
2022-12-04T00:44:15.265Z,38.50
2022-12-04T00:46:45.340Z,35.33
2022-12-04T00:49:17.934Z,33.47
2022-12-04T00:51:47.931Z,42.35
2022-12-04T00:54:17.895Z,39.88
2022-12-04T00:56:47.857Z,37.95
2022-12-04T00:59:17.818Z,34.20
2022-12-04T01:01:48.026Z,32.67
2022-12-04T01:04:21.037Z,32.80
2022-12-04T01:06:51.251Z,37.67
2022-12-04T01:09:21.627Z,36.45
2022-12-04T01:11:51.976Z,34.67
2022-12-04T01:14:21.933Z,37.45
2022-12-04T01:16:51.968Z,36.33
2022-12-04T01:19:24.622Z,37.08
2022-12-04T01:21:54.834Z,32.60
2022-12-04T01:24:25.390Z,42.35
2022-12-04T01:26:55.331Z,39.65
2022-12-04T01:29:25.506Z,41.20
2022-12-04T01:31:55.766Z,37.83
2022-12-04T01:34:28.477Z,43.55
2022-12-04T01:36:58.379Z,34.72
2022-12-04T01:39:28.654Z,41.05
2022-12-04T01:41:58.631Z,32.33
2022-12-04T01:44:29.582Z,39.58
2022-12-04T01:47:00.853Z,44.78
2022-12-04T01:49:39.257Z,36.00
2022-12-04T01:52:17.956Z,40.45
2022-12-04T01:54:52.196Z,37.75
2022-12-04T01:57:25.226Z,30.38
2022-12-04T01:59:58.757Z,39.03
2022-12-04T02:02:35.113Z,30.60
2022-12-04T02:05:13.900Z,30.52
2022-12-04T02:07:46.118Z,42.72
2022-12-04T02:10:17.429Z,27.50
2022-12-04T02:12:51.304Z,32.85
2022-12-04T02:15:26.850Z,28.67
2022-12-04T02:18:02.766Z,38.08
2022-12-04T02:20:42.756Z,41.22
2022-12-04T02:23:27.978Z,35.50
2022-12-04T02:26:07.373Z,28.77
2022-12-04T02:28:45.691Z,44.30
2022-12-04T02:33:56.012Z,27.27
2022-12-04T02:36:30.485Z,34.92
2022-12-04T02:39:05.666Z,31.80
2022-12-04T02:41:41.046Z,36.47
2022-12-04T02:44:17.355Z,37.13
2022-12-04T02:46:50.860Z,41.47
2022-12-04T02:49:24.192Z,29.63
2022-12-04T02:51:56.030Z,32.80
2022-12-04T02:54:33.104Z,41.22
2022-12-04T02:57:04.574Z,36.13
2022-12-04T02:59:40.998Z,30.25
2022-12-04T03:02:15.524Z,35.90
2022-12-04T03:04:46.948Z,31.30
2022-12-04T03:07:20.601Z,41.35
2022-12-04T03:09:55.233Z,37.58
2022-12-04T03:12:29.743Z,32.97
2022-12-04T03:15:08.610Z,23.75
2022-12-04T03:17:44.137Z,32.72
2022-12-04T03:20:18.157Z,34.78
2022-12-04T03:22:53.203Z,30.55
2022-12-04T03:25:23.363Z,34.92
2022-12-04T03:28:00.215Z,40.40
2022-12-04T03:30:39.800Z,28.15
2022-12-04T03:33:14.281Z,40.00
2022-12-04T03:35:50.014Z,36.15
2022-12-04T03:38:25.128Z,39.75
2022-12-04T03:41:03.444Z,36.60
2022-12-04T03:46:15.415Z,24.50
2022-12-04T03:48:50.536Z,37.60
2022-12-04T03:51:24.448Z,41.50
2022-12-04T03:53:59.289Z,34.47
2022-12-04T03:56:33.529Z,27.73
2022-12-04T03:59:09.737Z,30.80
2022-12-04T04:01:45.866Z,35.53
2022-12-04T04:04:21.127Z,18.45
2022-12-04T04:06:55.760Z,33.55
2022-12-04T04:09:29.266Z,38.47
2022-12-04T04:12:06.160Z,39.67
2022-12-04T04:14:53.982Z,39.35
2022-12-04T04:17:44.069Z,36.75
2022-12-04T04:20:32.035Z,42.53
2022-12-04T04:23:16.972Z,26.88
2022-12-04T04:28:36.268Z,29.17
2022-12-04T04:31:15.198Z,39.03
2022-12-04T04:34:00.614Z,38.50
2022-12-04T04:36:42.685Z,33.22
2022-12-04T04:39:18.969Z,31.08
2022-12-04T04:41:53.503Z,36.22
2022-12-04T04:44:30.970Z,30.95
2022-12-04T04:47:06.212Z,30.92
2022-12-04T04:49:41.976Z,36.88
2022-12-04T04:52:12.288Z,38.40
2022-12-04T04:54:45.465Z,38.40
2022-12-04T04:57:15.445Z,33.83
2022-12-04T04:59:45.599Z,38.25
2022-12-04T05:02:15.866Z,35.83
2022-12-04T05:04:48.454Z,39.55
2022-12-04T05:07:18.692Z,38.40
2022-12-04T05:09:48.690Z,39.88
2022-12-04T05:12:18.856Z,41.50
2022-12-04T05:14:50.920Z,22.95
2022-12-04T05:17:20.983Z,37.33
2022-12-04T05:19:57.574Z,38.15
2022-12-04T05:22:30.233Z,34.83
2022-12-04T05:25:00.611Z,29.08
2022-12-04T05:27:32.566Z,33.65
2022-12-04T05:30:02.517Z,34.63
2022-12-04T05:32:33.267Z,29.67
2022-12-04T05:35:10.758Z,29.70
2022-12-04T05:37:42.677Z,37.60
2022-12-04T05:40:13.653Z,32.83
2022-12-04T05:42:43.884Z,27.13
2022-12-04T05:45:14.128Z,33.25
2022-12-04T05:47:44.529Z,39.28
2022-12-04T05:50:17.349Z,37.42
2022-12-04T05:52:47.547Z,35.88
2022-12-04T05:55:17.551Z,32.78
2022-12-04T05:57:47.774Z,36.08
2022-12-04T06:00:19.372Z,28.17
2022-12-04T06:02:49.405Z,33.63
2022-12-04T06:05:22.008Z,30.98
2022-12-04T06:07:52.263Z,35.90
2022-12-04T06:10:22.493Z,43.22
2022-12-04T06:12:57.273Z,27.33
2022-12-04T06:15:27.713Z,22.52
2022-12-04T06:17:57.646Z,37.95
2022-12-04T06:20:31.506Z,31.65
2022-12-04T06:23:01.760Z,26.63
2022-12-04T06:25:31.992Z,40.00
2022-12-04T06:28:01.955Z,35.33
2022-12-04T06:30:32.320Z,24.23
2022-12-04T06:33:02.320Z,38.30
2022-12-04T06:35:34.871Z,41.63
2022-12-04T06:38:04.872Z,35.53
2022-12-04T06:40:34.804Z,25.17
2022-12-04T06:43:06.274Z,34.63
2022-12-04T06:45:36.642Z,31.08
2022-12-04T06:48:06.968Z,34.50
2022-12-04T06:50:39.516Z,39.05
2022-12-04T06:53:09.718Z,31.65
2022-12-04T06:55:39.666Z,23.00
2022-12-04T06:58:09.644Z,27.17
2022-12-04T07:00:39.645Z,45.08
2022-12-04T07:03:09.642Z,23.00
2022-12-04T07:05:42.194Z,33.08
2022-12-04T07:08:12.460Z,40.60
2022-12-04T07:10:42.764Z,41.08
2022-12-04T07:13:13.515Z,44.30
2022-12-04T07:15:43.487Z,46.50
2022-12-04T07:18:13.597Z,43.88
2022-12-04T07:20:46.144Z,37.30
2022-12-04T07:23:16.322Z,29.98
2022-12-04T07:25:46.586Z,33.08
2022-12-04T07:28:16.667Z,33.08
2022-12-04T07:30:46.590Z,38.03
2022-12-04T07:33:16.870Z,43.83
2022-12-04T07:35:57.240Z,38.80
2022-12-04T07:38:28.015Z,39.75
2022-12-04T07:40:59.301Z,39.75
2022-12-04T07:43:30.068Z,34.13
2022-12-04T07:46:00.300Z,42.13
2022-12-04T07:48:33.318Z,41.38
2022-12-04T07:51:13.259Z,41.03
2022-12-04T07:53:43.687Z,33.70
2022-12-04T07:56:15.240Z,45.28
2022-12-04T07:58:45.537Z,43.72
2022-12-04T08:01:18.176Z,31.50
2022-12-04T08:03:50.078Z,42.33
2022-12-04T08:06:23.810Z,48.53
2022-12-04T08:08:54.525Z,43.83
2022-12-04T08:11:27.530Z,35.58
2022-12-04T08:13:58.987Z,40.63
2022-12-04T08:16:30.363Z,36.88
2022-12-04T08:19:00.765Z,42.75
2022-12-04T08:21:34.508Z,27.75
2022-12-04T08:24:05.285Z,43.22
2022-12-04T08:26:36.376Z,43.40
2022-12-04T08:29:07.208Z,32.45
2022-12-04T08:31:39.062Z,30.08
2022-12-04T08:34:10.881Z,46.60
2022-12-04T08:39:13.767Z,39.45
2022-12-04T08:41:43.819Z,39.75
2022-12-04T08:44:13.879Z,39.70
2022-12-04T08:46:44.050Z,46.17
2022-12-04T08:49:14.350Z,35.90
2022-12-04T08:51:46.953Z,41.13
2022-12-04T08:54:17.365Z,37.50
2022-12-04T08:56:47.567Z,44.83
2022-12-04T08:59:17.689Z,51.92
2022-12-04T09:01:47.903Z,42.15
2022-12-04T09:04:17.964Z,34.97
2022-12-04T09:06:50.576Z,42.72
2022-12-04T09:09:20.732Z,41.58
2022-12-04T09:11:50.731Z,24.60
2022-12-04T09:14:25.837Z,33.70
2022-12-04T09:16:56.406Z,49.35
2022-12-04T09:19:26.371Z,37.25
2022-12-04T09:21:58.877Z,46.88
2022-12-04T09:24:28.974Z,38.72
2022-12-04T09:26:59.144Z,43.38
2022-12-04T09:29:29.499Z,44.45
2022-12-04T09:31:59.441Z,39.40
2022-12-04T09:34:29.421Z,39.25
2022-12-04T09:37:02.012Z,49.33
2022-12-04T09:39:32.239Z,44.17
2022-12-04T09:42:16.918Z,41.15
2022-12-04T09:44:50.755Z,43.83
2022-12-04T09:47:28.022Z,34.03
2022-12-04T09:50:02.701Z,29.10
2022-12-04T09:52:46.444Z,22.90
2022-12-04T09:55:23.484Z,43.03
2022-12-04T09:58:01.593Z,44.05
2022-12-04T10:00:33.902Z,41.85
2022-12-04T10:05:45.611Z,41.08
2022-12-04T10:08:24.276Z,38.00
2022-12-04T10:11:06.803Z,38.20
2022-12-04T10:14:07.846Z,44.80
2022-12-04T10:16:49.599Z,41.63
2022-12-04T10:19:27.567Z,31.75
2022-12-04T10:22:06.823Z,40.70
2022-12-04T10:24:46.403Z,34.17
2022-12-04T10:27:23.915Z,34.53
2022-12-04T10:29:58.765Z,35.83
2022-12-04T10:32:33.205Z,38.72
2022-12-04T10:35:13.052Z,30.70
2022-12-04T10:37:44.929Z,34.70
2022-12-04T10:40:24.695Z,40.00
2022-12-04T10:43:00.683Z,38.47
2022-12-04T10:45:30.658Z,34.22
2022-12-04T10:48:01.278Z,36.45
2022-12-04T10:50:31.240Z,33.15
2022-12-04T10:53:01.438Z,31.90
2022-12-04T10:55:38.352Z,30.27
2022-12-04T10:58:18.654Z,27.58
2022-12-04T11:01:00.293Z,34.15
2022-12-04T11:03:32.078Z,32.85
2022-12-04T11:06:04.520Z,34.90
2022-12-04T11:08:39.886Z,33.17
2022-12-04T11:11:16.077Z,28.52
2022-12-04T11:13:46.388Z,29.55
2022-12-04T11:16:36.349Z,28.77
2022-12-04T11:19:06.620Z,28.73
2022-12-04T11:21:36.578Z,32.92
2022-12-04T11:24:06.788Z,25.08
2022-12-04T11:26:41.672Z,27.25
2022-12-04T11:29:18.860Z,27.75
2022-12-04T11:31:52.340Z,26.13
2022-12-04T11:34:25.749Z,45.58
2022-12-04T11:36:59.893Z,38.35
2022-12-04T11:39:35.724Z,38.38
2022-12-04T11:42:18.726Z,80.18
2022-12-04T11:44:57.311Z,22.80
2022-12-04T11:47:32.601Z,16.20
2022-12-04T11:50:11.569Z,21.52
2022-12-04T11:53:01.145Z,22.38
2022-12-04T11:55:39.630Z,14.38
2022-12-04T11:58:45.069Z,22.48
2022-12-04T12:01:27.508Z,28.40
2022-12-04T12:04:18.069Z,23.25
2022-12-04T12:06:59.838Z,16.52
2022-12-04T12:09:39.037Z,16.77
2022-12-04T12:12:16.174Z,20.92
2022-12-04T12:14:59.724Z,20.25
2022-12-04T12:17:38.026Z,16.60
2022-12-04T12:20:23.284Z,15.95
2022-12-04T12:23:04.902Z,18.02
2022-12-04T12:25:42.235Z,20.38
2022-12-04T12:28:21.575Z,16.13
2022-12-04T12:36:11.886Z,13.85
2022-12-04T12:38:47.063Z,14.02
2022-12-04T12:41:19.114Z,16.50
2022-12-04T12:43:56.114Z,21.98
2022-12-04T12:46:34.160Z,14.40
2022-12-04T12:49:09.325Z,20.35
2022-12-04T12:51:44.747Z,21.48
2022-12-04T12:54:29.444Z,27.52
2022-12-04T12:57:07.424Z,17.65
2022-12-04T12:59:37.655Z,28.58
2022-12-04T13:02:17.208Z,23.50
2022-12-04T13:04:53.071Z,13.25
2022-12-04T13:07:35.866Z,17.25
2022-12-04T13:10:10.658Z,24.63
2022-12-04T13:12:47.890Z,27.42
2022-12-04T13:15:20.244Z,21.10
2022-12-04T13:17:57.481Z,27.95
2022-12-04T13:20:31.566Z,19.13
2022-12-04T13:23:19.920Z,22.17
2022-12-04T13:25:58.587Z,18.30
2022-12-04T13:28:45.199Z,13.68
2022-12-04T13:31:25.634Z,21.13
2022-12-04T13:34:17.486Z,21.77
2022-12-04T13:37:05.460Z,18.52
2022-12-04T13:40:06.967Z,19.58
2022-12-04T13:42:37.186Z,24.05
2022-12-04T13:45:13.323Z,18.73
2022-12-04T13:47:43.526Z,20.20
2022-12-04T13:50:33.510Z,20.48
2022-12-04T13:53:03.986Z,21.85
2022-12-04T13:55:35.920Z,22.95
2022-12-04T13:58:25.992Z,21.38
2022-12-04T14:01:13.216Z,19.33
2022-12-04T14:03:51.005Z,9.02
2022-12-04T14:06:31.516Z,19.63
2022-12-04T14:09:04.156Z,23.02
2022-12-04T14:11:44.694Z,23.52
2022-12-04T14:14:28.864Z,23.30
2022-12-04T14:17:00.331Z,22.48
2022-12-04T14:19:34.716Z,22.40
2022-12-04T14:22:07.738Z,14.80
2022-12-04T14:24:39.902Z,11.30
2022-12-04T14:27:36.418Z,17.55
2022-12-04T14:30:07.146Z,23.75
2022-12-04T14:32:38.229Z,17.45
2022-12-04T14:35:09.521Z,22.02
2022-12-04T14:37:51.673Z,13.77
2022-12-04T14:40:25.881Z,20.95
2022-12-04T14:42:56.747Z,19.45
2022-12-04T14:45:37.134Z,17.80
2022-12-04T14:48:30.435Z,17.10
2022-12-04T14:51:10.955Z,17.17
2022-12-04T14:53:49.117Z,14.73
2022-12-04T14:56:43.482Z,20.80
2022-12-04T14:59:19.829Z,20.52
2022-12-04T15:01:51.984Z,16.73
2022-12-04T15:04:27.388Z,25.88
2022-12-04T15:07:00.380Z,27.02
2022-12-04T15:09:45.831Z,17.52
2022-12-04T15:12:36.034Z,23.48
2022-12-04T15:15:15.494Z,21.90
2022-12-04T15:17:45.448Z,14.77
2022-12-04T15:20:21.679Z,18.08
2022-12-04T15:22:51.889Z,20.65
2022-12-04T15:25:27.945Z,19.70
2022-12-04T15:28:11.488Z,24.95
2022-12-04T15:30:44.590Z,20.83
2022-12-04T15:33:21.856Z,20.88
2022-12-04T15:35:55.807Z,20.23
2022-12-04T15:38:26.404Z,20.48
2022-12-04T15:41:00.729Z,22.02
2022-12-04T15:43:34.036Z,19.83
2022-12-04T15:46:04.362Z,19.10
2022-12-04T15:48:34.912Z,21.30
2022-12-04T15:51:07.262Z,29.88
2022-12-04T15:53:40.513Z,21.02
2022-12-04T15:56:20.673Z,15.35
2022-12-04T15:58:58.855Z,20.17
2022-12-04T16:01:29.436Z,20.98
2022-12-04T16:03:59.805Z,21.13
2022-12-04T16:06:31.814Z,19.83
2022-12-04T16:09:05.514Z,20.98
2022-12-04T16:11:41.129Z,18.75
2022-12-04T16:14:21.412Z,21.95
2022-12-04T16:16:53.232Z,21.95
2022-12-04T16:19:30.978Z,19.70
2022-12-04T16:22:01.139Z,20.45
2022-12-04T16:24:31.502Z,18.63
2022-12-04T16:27:05.565Z,22.35
2022-12-04T16:29:35.484Z,23.35
2022-12-04T16:32:05.552Z,18.77
2022-12-04T16:34:35.797Z,20.63
2022-12-04T16:37:06.299Z,18.10
2022-12-04T16:39:41.192Z,21.08
2022-12-04T16:42:18.632Z,11.00
2022-12-04T16:44:48.663Z,21.60
2022-12-04T16:47:19.160Z,21.42
2022-12-04T16:49:51.679Z,20.85
2022-12-04T16:52:22.139Z,23.95
2022-12-04T16:54:52.088Z,20.83
2022-12-04T16:57:24.661Z,12.50
2022-12-04T16:59:55.181Z,25.30
2022-12-04T17:02:29.694Z,19.25
2022-12-04T17:05:00.072Z,15.48
2022-12-04T17:07:30.581Z,21.48
2022-12-04T17:10:00.818Z,11.45
2022-12-04T17:12:33.421Z,15.45
2022-12-04T17:15:03.346Z,16.83
2022-12-04T17:17:33.712Z,16.75
2022-12-04T17:20:03.691Z,20.23
2022-12-04T17:22:33.673Z,20.55
2022-12-04T17:25:03.719Z,20.42
2022-12-04T17:27:37.170Z,22.85
2022-12-04T17:30:08.856Z,23.80
2022-12-04T17:35:10.995Z,19.52
2022-12-04T17:37:41.479Z,14.55
2022-12-04T17:40:14.429Z,21.10
2022-12-04T17:42:47.229Z,23.05
2022-12-04T17:45:17.431Z,21.67
2022-12-04T17:47:47.784Z,21.27
2022-12-04T17:50:17.760Z,22.80
2022-12-04T17:52:48.421Z,23.02
2022-12-04T17:55:18.690Z,24.55
2022-12-04T17:57:51.290Z,49.92
2022-12-04T18:00:21.711Z,16.77
2022-12-04T18:02:53.537Z,21.65
2022-12-04T18:05:24.055Z,20.58
2022-12-04T18:07:54.092Z,20.63
2022-12-04T18:10:24.497Z,25.73
2022-12-04T18:12:57.093Z,21.10
2022-12-04T18:15:27.369Z,20.25
2022-12-04T18:17:57.368Z,19.88
2022-12-04T18:20:27.823Z,17.50
2022-12-04T18:22:57.817Z,14.20
2022-12-04T18:25:27.838Z,24.13
2022-12-04T18:28:01.576Z,15.27
2022-12-04T18:30:31.780Z,21.45
2022-12-04T18:33:01.790Z,25.23
2022-12-04T18:35:31.788Z,22.42
2022-12-04T18:38:01.997Z,23.45
2022-12-04T18:40:31.983Z,21.10
2022-12-04T18:43:04.633Z,22.95
2022-12-04T18:45:34.636Z,21.38
2022-12-04T18:48:05.033Z,19.77
2022-12-04T18:50:34.998Z,14.88
2022-12-04T18:53:05.138Z,21.40
2022-12-04T18:55:38.398Z,28.33
2022-12-04T18:58:10.983Z,16.63
2022-12-04T19:00:41.195Z,17.83
2022-12-04T19:03:11.629Z,20.83
2022-12-04T19:05:49.689Z,19.45
2022-12-04T19:08:19.738Z,22.17
2022-12-04T19:10:50.021Z,20.77
2022-12-04T19:13:23.008Z,15.88
2022-12-04T19:15:53.228Z,19.90
2022-12-04T19:18:23.462Z,20.02
2022-12-04T19:20:53.434Z,18.83
2022-12-04T19:23:23.919Z,21.20
2022-12-04T19:25:58.010Z,19.27
2022-12-04T19:28:31.129Z,23.02
2022-12-04T19:31:01.114Z,25.73
2022-12-04T19:33:31.201Z,24.13
2022-12-04T19:36:02.472Z,23.75
2022-12-04T19:38:33.211Z,22.55
2022-12-04T19:41:09.388Z,24.50
2022-12-04T19:43:43.642Z,22.08
2022-12-04T19:46:15.376Z,20.33
2022-12-04T19:48:46.335Z,22.80
2022-12-04T19:51:18.426Z,23.60
2022-12-04T19:53:49.430Z,17.45
2022-12-04T19:56:21.511Z,24.58
2022-12-04T19:58:57.437Z,25.15
2022-12-04T20:01:30.485Z,22.10
2022-12-04T20:04:02.679Z,23.95
2022-12-04T20:06:33.912Z,24.20
2022-12-04T20:09:06.736Z,23.65
2022-12-04T20:11:37.517Z,22.48
2022-12-04T20:14:10.882Z,25.83
2022-12-04T20:16:42.121Z,22.80
2022-12-04T20:19:16.255Z,27.75
2022-12-04T20:21:47.389Z,23.42
2022-12-04T20:24:19.341Z,22.92
2022-12-04T20:26:49.841Z,24.98
2022-12-04T20:29:22.614Z,23.23
2022-12-04T20:31:52.623Z,20.60
2022-12-04T20:34:22.763Z,24.75
2022-12-04T20:36:53.217Z,20.80
2022-12-04T20:39:23.900Z,24.67
2022-12-04T20:41:54.271Z,22.98
2022-12-04T20:44:27.325Z,27.10
2022-12-04T20:46:57.595Z,19.23
2022-12-04T20:49:27.852Z,24.73
2022-12-04T20:51:58.232Z,26.02
2022-12-04T20:54:28.469Z,27.17
2022-12-04T20:56:58.450Z,25.30
2022-12-04T20:59:31.081Z,26.63
2022-12-04T21:02:01.292Z,24.15
2022-12-04T21:04:31.236Z,24.25
2022-12-04T21:07:01.682Z,20.95
2022-12-04T21:09:31.873Z,16.13
2022-12-04T21:12:02.093Z,22.83
2022-12-04T21:14:47.355Z,25.83
2022-12-04T21:17:19.532Z,31.40
2022-12-04T21:19:51.527Z,30.77
2022-12-04T21:22:22.571Z,32.92
2022-12-04T21:24:52.530Z,30.50
2022-12-04T21:27:22.571Z,27.42
2022-12-04T21:29:56.164Z,27.70
2022-12-04T21:32:26.582Z,24.63
2022-12-04T21:34:56.829Z,33.78
2022-12-04T21:37:29.234Z,29.58
2022-12-04T21:39:59.806Z,27.55
2022-12-04T21:42:33.056Z,29.00
2022-12-04T21:45:09.262Z,30.35
2022-12-04T21:47:40.059Z,33.00
2022-12-04T21:50:11.342Z,35.13
2022-12-04T21:52:41.249Z,31.75
2022-12-04T21:55:11.903Z,39.17
2022-12-04T21:57:42.115Z,30.52
2022-12-04T22:00:16.856Z,26.63
2022-12-04T22:02:46.819Z,33.25
2022-12-04T22:05:17.032Z,29.05
2022-12-04T22:07:47.050Z,24.95
2022-12-04T22:10:17.154Z,26.25
2022-12-04T22:12:50.732Z,34.17
2022-12-04T22:15:23.775Z,30.90
2022-12-04T22:17:53.713Z,26.40
2022-12-04T22:20:23.959Z,28.27
2022-12-04T22:22:53.863Z,31.35
2022-12-04T22:25:23.862Z,23.17
2022-12-04T22:27:55.327Z,26.40
2022-12-04T22:30:28.630Z,25.33
2022-12-04T22:32:58.813Z,35.70
2022-12-04T22:35:28.961Z,36.00
2022-12-04T22:38:00.908Z,26.95
2022-12-04T22:40:30.925Z,25.70
2022-12-04T22:43:01.091Z,24.85
2022-12-04T22:45:33.811Z,28.77
2022-12-04T22:48:04.925Z,24.55
2022-12-04T22:50:34.900Z,23.85
2022-12-04T22:53:04.846Z,29.25
2022-12-04T22:55:34.859Z,27.52
2022-12-04T22:58:05.044Z,24.90
2022-12-04T23:00:37.621Z,23.45
2022-12-04T23:03:07.669Z,29.45
2022-12-04T23:05:37.905Z,26.10
2022-12-04T23:08:08.155Z,30.13
2022-12-04T23:10:40.111Z,27.63
2022-12-04T23:13:10.064Z,24.35
2022-12-04T23:15:43.271Z,28.05
2022-12-04T23:18:13.186Z,25.00
2022-12-04T23:20:43.137Z,25.30
2022-12-04T23:23:13.094Z,22.23
2022-12-04T23:25:43.603Z,25.45
2022-12-04T23:28:13.609Z,19.73
2022-12-04T23:30:50.429Z,24.95
2022-12-04T23:33:20.657Z,22.05
2022-12-04T23:35:54.359Z,24.88
2022-12-04T23:38:25.361Z,22.25
2022-12-04T23:41:03.761Z,24.63
2022-12-04T23:43:34.395Z,23.45
2022-12-04T23:46:11.259Z,22.65
2022-12-04T23:48:42.215Z,24.73
2022-12-04T23:51:13.186Z,24.20
2022-12-04T23:53:43.197Z,22.35
2022-12-04T23:56:16.576Z,23.60
2022-12-04T23:58:47.975Z,21.55
